Time;durP1;ratioP1;P1;durP2;ratioP2;P2;SDS_P1;SDS_P2;PMS_P1;PMS_P2;Temp;Humidity;BMP_temperature;BMP_pressure;BME280_temperature;BME280_humidity;BME280_pressure;Samples;Min_cycle;Max_cycle;Signal;HPM_P1;HPM_P2
2023/10/14 00:01:34;;;;;;;16.25;1.42;;;13.80;99.90;;;;;;5105129;28;20032;-78
2023/10/14 00:04:04;;;;;;;15.18;1.50;;;13.80;99.90;;;;;;5105351;28;20027;-85
2023/10/14 00:06:29;;;;;;;12.32;1.52;;;13.70;99.90;;;;;;5104056;28;20543;-84
2023/10/14 00:08:58;;;;;;;17.20;1.77;;;13.60;99.90;;;;;;5104647;28;20117;-83
2023/10/14 00:11:43;;;;;;;14.18;1.60;;;13.60;99.90;;;;;;5104143;28;20020;-79
2023/10/14 00:14:17;;;;;;;21.55;2.17;;;13.50;99.90;;;;;;5104327;28;20032;-78
2023/10/14 00:16:49;;;;;;;14.23;1.50;;;13.50;99.90;;;;;;5104512;28;20028;-76
2023/10/14 00:19:18;;;;;;;11.52;1.25;;;13.40;99.90;;;;;;5105544;28;20019;-83
2023/10/14 00:21:44;;;;;;;15.88;1.70;;;13.40;99.90;;;;;;5104112;28;20135;-80
2023/10/14 00:24:10;;;;;;;11.75;1.50;;;13.30;99.90;;;;;;5104004;28;20043;-77
2023/10/14 00:26:36;;;;;;;8.05;1.33;;;13.30;99.90;;;;;;5104917;28;20016;-79
2023/10/14 00:31:50;;;;;;;8.90;1.30;;;13.30;99.90;;;;;;5105012;28;20028;-81
2023/10/14 00:34:23;;;;;;;12.20;1.67;;;13.30;99.90;;;;;;5102977;28;20032;-78
2023/10/14 00:36:49;;;;;;;14.70;1.65;;;13.30;99.90;;;;;;5105134;28;20522;-78
2023/10/14 00:39:16;;;;;;;13.20;1.95;;;13.30;99.90;;;;;;5103022;28;20028;-79
2023/10/14 00:41:50;;;;;;;8.18;1.40;;;13.30;99.90;;;;;;5103662;28;20028;-80
2023/10/14 00:44:16;;;;;;;5.93;1.30;;;13.30;99.90;;;;;;5104949;28;20495;-76
2023/10/14 00:46:48;;;;;;;17.83;1.63;;;13.30;99.90;;;;;;5103012;28;20073;-81
2023/10/14 00:49:15;;;;;;;13.63;1.27;;;13.20;99.90;;;;;;5104557;28;20023;-79
2023/10/14 00:51:44;;;;;;;6.20;1.17;;;13.30;99.90;;;;;;5104333;28;20044;-81
2023/10/14 00:54:12;;;;;;;8.85;1.23;;;13.30;99.90;;;;;;5102675;28;20052;-77
2023/10/14 00:56:42;;;;;;;5.93;1.02;;;13.20;99.90;;;;;;5102986;28;20024;-75
2023/10/14 00:59:09;;;;;;;7.00;1.30;;;13.10;99.90;;;;;;5102928;28;20020;-82
2023/10/14 01:04:20;;;;;;;;;;;13.10;99.90;;;;;;5105668;28;20050;-82
2023/10/14 01:12:19;;;;;;;6.15;1.00;;;13.00;99.90;;;;;;5104616;28;20040;-83
2023/10/14 01:14:46;;;;;;;6.78;1.17;;;12.90;99.90;;;;;;5104002;28;20057;-81
2023/10/14 01:17:21;;;;;;;5.20;1.00;;;12.80;99.90;;;;;;5102610;28;20126;-79
2023/10/14 01:19:47;;;;;;;5.35;0.95;;;12.80;99.90;;;;;;5102882;28;20087;-81
2023/10/14 01:22:13;;;;;;;8.32;1.38;;;12.80;99.90;;;;;;5102673;28;20032;-78
2023/10/14 01:24:42;;;;;;;8.25;1.40;;;12.80;99.90;;;;;;5104107;28;20016;-81
2023/10/14 01:27:09;;;;;;;5.68;1.25;;;12.80;99.90;;;;;;5102285;28;20040;-79
2023/10/14 01:29:44;;;;;;;6.47;1.27;;;12.80;99.90;;;;;;5102569;28;20158;-77
2023/10/14 01:35:12;;;;;;;5.22;1.27;;;12.70;99.90;;;;;;5103727;28;20028;-79
2023/10/14 01:37:39;;;;;;;6.07;1.40;;;12.60;99.90;;;;;;5103990;28;20020;-76
2023/10/14 01:40:24;;;;;;;3.60;1.05;;;12.60;99.90;;;;;;5104161;28;20528;-81
2023/10/14 01:42:58;;;;;;;9.10;1.85;;;12.60;99.90;;;;;;5103714;28;20028;-79
2023/10/14 01:45:27;;;;;;;9.02;1.20;;;12.60;99.90;;;;;;5102294;28;20031;-81
2023/10/14 01:48:12;;;;;;;6.20;1.20;;;12.60;99.90;;;;;;5102007;28;20035;-80
2023/10/14 01:50:45;;;;;;;4.50;1.50;;;12.60;99.90;;;;;;5102776;28;20131;-79
2023/10/14 01:53:21;;;;;;;5.10;1.15;;;12.60;99.90;;;;;;5102582;28;20038;-81
2023/10/14 01:55:47;;;;;;;3.35;1.00;;;12.60;99.90;;;;;;5102202;28;20105;-79
2023/10/14 01:58:32;;;;;;;5.50;0.80;;;12.60;99.90;;;;;;5103459;28;20046;-84
2023/10/14 02:03:46;;;;;;;7.22;1.20;;;12.50;99.90;;;;;;5103527;28;20032;-86
2023/10/14 02:06:19;;;;;;;7.07;1.35;;;12.50;99.90;;;;;;5102579;28;20122;-87
2023/10/14 02:08:47;;;;;;;7.10;1.27;;;12.50;99.90;;;;;;5102300;28;20062;-81
2023/10/14 02:11:20;;;;;;;2.97;1.15;;;12.50;99.90;;;;;;5101979;28;20052;-85
2023/10/14 02:13:55;;;;;;;4.88;1.38;;;12.50;99.90;;;;;;5103179;28;20020;-84
2023/10/14 02:16:24;;;;;;;7.40;1.35;;;12.50;99.90;;;;;;5102029;28;20038;-83
2023/10/14 02:18:49;;;;;;;7.75;1.42;;;12.50;99.90;;;;;;5102544;28;20035;-80
2023/10/14 02:21:18;;;;;;;4.47;1.10;;;12.50;99.90;;;;;;5103136;28;20028;-77
2023/10/14 02:23:45;;;;;;;6.47;1.33;;;12.50;99.90;;;;;;5102743;28;20020;-73
2023/10/14 02:26:15;;;;;;;6.97;1.60;;;12.50;99.90;;;;;;5102930;28;20032;-78
2023/10/14 02:28:45;;;;;;;6.50;1.38;;;12.50;99.90;;;;;;5103019;28;20063;-78
2023/10/14 02:31:18;;;;;;;12.07;1.90;;;12.40;99.90;;;;;;5102518;28;20047;-82
2023/10/14 02:33:47;;;;;;;9.23;1.63;;;12.40;99.90;;;;;;5101714;28;20031;-82
2023/10/14 02:36:16;;;;;;;4.53;1.50;;;12.40;99.90;;;;;;5101590;28;20043;-78
2023/10/14 02:38:53;;;;;;;5.60;1.40;;;12.40;99.90;;;;;;5102632;28;20040;-73
2023/10/14 02:41:20;;;;;;;5.55;1.58;;;12.40;99.90;;;;;;5102727;28;20042;-87
2023/10/14 02:43:49;;;;;;;11.93;2.15;;;12.40;99.90;;;;;;5101832;28;20032;-81
2023/10/14 02:46:20;;;;;;;10.50;2.00;;;12.40;99.90;;;;;;5101997;28;20077;-82
2023/10/14 02:48:52;;;;;;;4.97;1.52;;;12.40;99.90;;;;;;5101577;28;20492;-84
2023/10/14 02:51:29;;;;;;;8.25;1.60;;;12.40;99.90;;;;;;5101077;28;20032;-84
2023/10/14 02:54:03;;;;;;;11.77;1.95;;;12.40;99.90;;;;;;5102423;28;20027;-79
2023/10/14 02:56:33;;;;;;;;;;;12.40;99.90;;;;;;5103001;28;20035;-75
2023/10/14 02:59:00;;;;;;;8.43;1.70;;;12.30;99.90;;;;;;5102283;28;19934;-85
2023/10/14 03:01:31;;;;;;;10.60;1.88;;;12.30;99.90;;;;;;5100878;28;20024;-78
2023/10/14 03:03:57;;;;;;;14.10;2.08;;;12.30;99.90;;;;;;5101362;28;20028;-83
2023/10/14 03:06:26;;;;;;;9.30;2.00;;;12.30;99.90;;;;;;5102606;28;20455;-81
2023/10/14 03:08:59;;;;;;;9.63;2.03;;;12.20;99.90;;;;;;5102465;28;20035;-81
2023/10/14 03:11:26;;;;;;;15.20;2.40;;;12.20;99.90;;;;;;5100103;28;20020;-83
2023/10/14 03:13:53;;;;;;;8.15;1.83;;;12.20;99.90;;;;;;5102261;28;20012;-78
2023/10/14 03:16:19;;;;;;;13.20;2.15;;;12.10;99.90;;;;;;5100652;28;20034;-80
2023/10/14 03:18:44;;;;;;;7.38;2.17;;;12.10;99.90;;;;;;5102302;28;20064;-75
2023/10/14 03:21:22;;;;;;;10.07;2.10;;;12.00;99.90;;;;;;5099848;28;20461;-80
2023/10/14 03:23:47;;;;;;;22.92;2.08;;;12.00;99.90;;;;;;5102235;28;20036;-78
2023/10/14 03:26:13;;;;;;;15.85;2.60;;;12.00;99.90;;;;;;5101047;28;20032;-78
2023/10/14 03:28:44;;;;;;;15.07;2.10;;;11.90;99.90;;;;;;5101526;28;20053;-79
2023/10/14 03:31:14;;;;;;;13.95;2.03;;;11.90;99.90;;;;;;5100957;28;20027;-80
2023/10/14 03:33:43;;;;;;;18.08;2.20;;;11.90;99.90;;;;;;5101477;28;20020;-80
2023/10/14 03:36:15;;;;;;;11.80;2.20;;;11.90;99.90;;;;;;5101591;28;20070;-79
2023/10/14 03:38:42;;;;;;;20.00;3.05;;;11.90;99.90;;;;;;5102156;28;20100;-77
2023/10/14 03:41:18;;;;;;;10.77;1.70;;;11.80;99.90;;;;;;5100286;28;20111;-80
2023/10/14 03:43:58;;;;;;;15.63;2.50;;;11.70;99.90;;;;;;5101729;28;20031;-76
2023/10/14 03:46:32;;;;;;;17.60;2.15;;;11.70;99.90;;;;;;5101753;28;20020;-81
2023/10/14 03:49:11;;;;;;;15.68;2.58;;;11.60;99.90;;;;;;5101941;28;20533;-80
2023/10/14 03:51:38;;;;;;;17.50;2.38;;;11.60;99.90;;;;;;5100278;28;20040;-79
2023/10/14 03:54:08;;;;;;;15.60;2.15;;;11.60;99.90;;;;;;5101411;28;20071;-77
2023/10/14 03:56:35;;;;;;;17.95;2.25;;;11.50;99.90;;;;;;5100316;28;20047;-77
2023/10/14 03:59:02;;;;;;;22.88;2.08;;;11.50;99.90;;;;;;5101251;28;20029;-80
2023/10/14 04:01:43;;;;;;;17.55;2.55;;;11.40;99.90;;;;;;5100331;28;20028;-82
2023/10/14 04:04:18;;;;;;;23.85;2.88;;;11.40;99.90;;;;;;5101786;28;20016;-79
2023/10/14 04:12:38;;;;;;;25.40;3.10;;;11.30;99.90;;;;;;5100585;28;20083;-80
2023/10/14 04:17:36;;;;;;;12.52;2.33;;;11.30;99.90;;;;;;5101113;28;20044;-79
2023/10/14 04:22:39;;;;;;;18.35;2.55;;;11.30;99.90;;;;;;5099806;28;20024;-72
2023/10/14 04:27:45;;;;;;;16.98;2.65;;;11.30;99.90;;;;;;5105066;28;20028;-72
2023/10/14 04:35:24;;;;;;;14.10;2.58;;;11.20;99.90;;;;;;5105249;28;20032;-76
2023/10/14 04:37:51;;;;;;;12.20;2.17;;;11.10;99.90;;;;;;5102484;28;20122;-75
2023/10/14 04:45:52;;;;;;;15.73;2.00;;;11.10;99.90;;;;;;5105017;28;20059;-73
2023/10/14 04:48:28;;;;;;;18.00;2.50;;;11.00;99.90;;;;;;5103108;28;20024;-73
2023/10/14 04:50:57;;;;;;;18.95;2.55;;;11.00;99.90;;;;;;5101918;28;20059;-74
2023/10/14 04:53:26;;;;;;;18.48;2.42;;;11.00;99.90;;;;;;5104342;28;20009;-74
2023/10/14 04:55:55;;;;;;;24.65;2.65;;;11.00;99.90;;;;;;5103602;28;20490;-72
2023/10/14 04:58:25;;;;;;;15.82;2.05;;;10.90;99.90;;;;;;5101994;28;20040;-74
2023/10/14 05:01:00;;;;;;;13.18;2.58;;;10.90;99.90;;;;;;5104799;28;20466;-73
2023/10/14 05:03:34;;;;;;;16.95;2.33;;;10.90;99.90;;;;;;5103979;28;20024;-74
2023/10/14 05:09:09;;;;;;;14.35;2.13;;;10.90;99.90;;;;;;5104447;28;20024;-75
2023/10/14 05:11:25;;;;;;;18.00;2.88;;;10.90;99.90;;;;;;5103715;28;20028;-73
2023/10/14 05:14:14;;;;;;;17.67;2.38;;;10.80;99.90;;;;;;5104151;28;20028;-73
2023/10/14 05:16:55;;;;;;;15.93;1.85;;;10.80;99.90;;;;;;5103593;28;20036;-73
2023/10/14 05:19:25;;;;;;;22.20;2.42;;;10.70;99.90;;;;;;5104292;28;20812;-72
2023/10/14 05:22:03;;;;;;;19.90;2.28;;;10.70;99.90;;;;;;5102789;28;20024;-73
2023/10/14 05:24:29;;;;;;;18.95;2.65;;;10.70;99.90;;;;;;5103902;28;20036;-72
2023/10/14 05:26:59;;;;;;;19.98;3.10;;;10.70;99.90;;;;;;5104575;28;20038;-76
2023/10/14 05:29:26;;;;;;;20.73;2.47;;;10.70;99.90;;;;;;5104194;28;20016;-73
2023/10/14 05:31:52;;;;;;;21.00;2.60;;;10.70;99.90;;;;;;5103751;28;20044;-75
2023/10/14 05:34:25;;;;;;;16.65;2.30;;;10.70;99.90;;;;;;5103306;28;20459;-75
2023/10/14 05:36:57;;;;;;;22.48;2.25;;;10.60;99.90;;;;;;5104027;28;20486;-74
2023/10/14 05:39:24;;;;;;;21.50;2.33;;;10.60;99.90;;;;;;5103305;28;20028;-74
2023/10/14 05:41:58;;;;;;;18.17;2.30;;;10.60;99.90;;;;;;5102816;28;20024;-75
2023/10/14 05:44:27;;;;;;;12.38;1.80;;;10.50;99.90;;;;;;5102371;28;20024;-70
2023/10/14 05:46:54;;;;;;;18.58;2.15;;;10.50;99.90;;;;;;5103736;28;20353;-74
2023/10/14 05:49:24;;;;;;;19.17;1.80;;;10.50;99.90;;;;;;5103308;28;20099;-72
2023/10/14 05:51:51;;;;;;;19.25;2.17;;;10.50;99.90;;;;;;5101815;28;20023;-74
2023/10/14 05:54:17;;;;;;;11.15;2.05;;;10.50;99.90;;;;;;5103515;28;20040;-73
2023/10/14 05:56:43;;;;;;;16.42;2.28;;;10.50;99.90;;;;;;5103759;28;20024;-72
2023/10/14 05:59:10;;;;;;;18.08;2.38;;;10.40;99.90;;;;;;5103512;28;20449;-77
2023/10/14 06:01:38;;;;;;;16.05;1.83;;;10.40;99.90;;;;;;5103444;28;20027;-75
2023/10/14 06:04:05;;;;;;;15.48;2.08;;;10.40;99.90;;;;;;5103514;28;20039;-71
2023/10/14 06:06:31;;;;;;;19.55;2.53;;;10.50;99.90;;;;;;5102783;28;20028;-76
2023/10/14 06:09:00;;;;;;;14.70;2.03;;;10.40;99.90;;;;;;5102066;28;20043;-76
2023/10/14 06:11:26;;;;;;;14.88;2.55;;;10.40;99.90;;;;;;5103533;28;20038;-72
2023/10/14 06:13:52;;;;;;;18.58;2.20;;;10.30;99.90;;;;;;5102414;28;20032;-75
2023/10/14 06:16:17;;;;;;;14.93;1.63;;;10.40;99.90;;;;;;5103242;28;20107;-72
2023/10/14 06:18:49;;;;;;;17.85;2.20;;;10.40;99.90;;;;;;5102506;28;20043;-72
2023/10/14 06:21:15;;;;;;;15.55;2.58;;;10.40;99.90;;;;;;5102511;28;20023;-73
2023/10/14 06:23:47;;;;;;;18.23;2.10;;;10.30;99.90;;;;;;5101810;28;20032;-73
2023/10/14 06:26:16;;;;;;;14.77;1.55;;;10.40;99.90;;;;;;5103145;28;20024;-72
2023/10/14 06:28:43;;;;;;;15.13;1.90;;;10.40;99.90;;;;;;5101069;28;20031;-72
2023/10/14 06:31:08;;;;;;;18.05;2.15;;;10.40;99.90;;;;;;5103084;28;20047;-70
2023/10/14 06:33:34;;;;;;;12.55;1.77;;;10.40;99.90;;;;;;5100392;28;20020;-74
2023/10/14 06:36:03;;;;;;;11.80;1.75;;;10.30;99.90;;;;;;5100277;28;20024;-72
2023/10/14 06:38:29;;;;;;;11.98;1.85;;;10.30;99.90;;;;;;5101507;28;20043;-74
2023/10/14 06:41:01;;;;;;;27.73;2.15;;;10.40;99.90;;;;;;5102227;28;20036;-72
2023/10/14 06:43:27;;;;;;;15.07;2.83;;;10.40;99.90;;;;;;5101429;28;20020;-71
2023/10/14 06:45:54;;;;;;;14.30;1.98;;;10.40;99.90;;;;;;5101237;28;20095;-73
2023/10/14 06:48:20;;;;;;;24.65;3.08;;;10.30;99.90;;;;;;5102283;28;20028;-74
2023/10/14 06:50:47;;;;;;;17.92;2.63;;;10.40;99.90;;;;;;5102206;28;20062;-73
2023/10/14 06:53:15;;;;;;;13.43;2.25;;;10.50;99.90;;;;;;5101074;28;20050;-72
2023/10/14 06:55:41;;;;;;;20.83;2.17;;;10.50;99.90;;;;;;5101001;28;20074;-73
2023/10/14 06:58:09;;;;;;;16.20;1.73;;;10.50;99.90;;;;;;5100603;28;20032;-70
2023/10/14 07:00:38;;;;;;;18.95;2.55;;;10.50;99.90;;;;;;5101258;28;20028;-76
2023/10/14 07:03:07;;;;;;;24.52;2.15;;;10.50;99.90;;;;;;5101106;28;20024;-74
2023/10/14 07:05:56;;;;;;;13.77;2.88;;;10.60;99.90;;;;;;5099984;28;20033;-76
2023/10/14 07:08:24;;;;;;;21.20;5.05;;;10.60;99.90;;;;;;5098953;28;20449;-73
2023/10/14 07:10:51;;;;;;;21.70;4.13;;;10.80;99.90;;;;;;5099724;28;20585;-75
2023/10/14 07:13:19;;;;;;;20.20;3.97;;;10.70;99.90;;;;;;5100671;28;20105;-72
2023/10/14 07:15:44;;;;;;;19.15;2.95;;;10.80;99.90;;;;;;5099539;28;20028;-76
2023/10/14 07:18:14;;;;;;;14.70;2.58;;;10.80;99.90;;;;;;5098984;28;20123;-74
2023/10/14 07:20:41;;;;;;;15.20;2.28;;;10.90;99.90;;;;;;5100694;28;20036;-76
2023/10/14 07:23:08;;;;;;;18.63;2.28;;;11.00;99.90;;;;;;5101103;28;20026;-74
2023/10/14 07:25:39;;;;;;;12.65;1.88;;;11.00;99.90;;;;;;5101570;28;20016;-70
2023/10/14 07:28:14;;;;;;;26.52;2.33;;;11.00;99.90;;;;;;5100818;28;20028;-72
2023/10/14 07:30:50;;;;;;;19.73;2.30;;;11.00;99.90;;;;;;5101949;28;20043;-75
2023/10/14 07:33:19;;;;;;;18.75;2.40;;;11.00;99.90;;;;;;5100316;28;20020;-73
2023/10/14 07:35:47;;;;;;;19.33;2.45;;;11.10;99.90;;;;;;5100216;28;20460;-71
2023/10/14 07:38:13;;;;;;;14.32;1.98;;;11.20;99.90;;;;;;5100921;28;20035;-73
2023/10/14 07:40:39;;;;;;;20.20;1.92;;;11.30;99.90;;;;;;5096926;28;20020;-74
2023/10/14 07:43:07;;;;;;;20.60;2.75;;;11.30;99.90;;;;;;5099327;28;20032;-75
2023/10/14 07:45:37;;;;;;;16.08;1.90;;;11.30;99.90;;;;;;5099917;28;20016;-74
2023/10/14 07:48:10;;;;;;;14.05;2.15;;;11.40;99.90;;;;;;5101599;28;20081;-72
2023/10/14 07:50:42;;;;;;;18.48;2.20;;;11.40;99.90;;;;;;5101843;28;20107;-70
2023/10/14 07:53:13;;;;;;;14.20;2.67;;;11.50;99.90;;;;;;5100205;28;20073;-70
2023/10/14 07:55:51;;;;;;;16.17;2.10;;;11.50;99.90;;;;;;5100287;28;20036;-66
2023/10/14 07:58:20;;;;;;;16.40;2.45;;;11.50;99.90;;;;;;5101410;28;21595;-70
2023/10/14 08:00:50;;;;;;;22.88;2.53;;;11.60;99.90;;;;;;5105197;28;20066;-68
2023/10/14 08:03:18;;;;;;;16.15;2.10;;;11.70;99.90;;;;;;5105028;28;20017;-71
2023/10/14 08:05:45;;;;;;;13.48;2.13;;;11.60;99.90;;;;;;5105398;28;20020;-72
2023/10/14 08:08:11;;;;;;;23.15;3.00;;;11.70;99.90;;;;;;5105300;28;20020;-71
2023/10/14 08:10:47;;;;;;;14.63;1.90;;;11.70;99.90;;;;;;5104969;28;20024;-71
2023/10/14 08:13:13;;;;;;;20.67;2.20;;;11.80;99.90;;;;;;5103525;28;20054;-72
2023/10/14 08:15:40;;;;;;;12.52;2.15;;;11.90;99.90;;;;;;5100084;28;20063;-70
2023/10/14 08:18:06;;;;;;;21.20;2.25;;;11.90;99.90;;;;;;5103780;28;20032;-67
2023/10/14 08:20:36;;;;;;;16.73;2.22;;;11.90;99.90;;;;;;5103976;28;20115;-70
2023/10/14 08:23:09;;;;;;;16.15;2.20;;;11.90;99.90;;;;;;5105063;28;20114;-70
2023/10/14 08:25:35;;;;;;;16.17;2.38;;;12.00;99.90;;;;;;5104007;28;20027;-73
2023/10/14 08:28:05;;;;;;;16.15;2.05;;;12.00;99.90;;;;;;5104324;28;20040;-72
2023/10/14 08:30:32;;;;;;;15.63;2.00;;;12.10;99.90;;;;;;5101513;28;20043;-72
2023/10/14 08:32:58;;;;;;;22.65;2.30;;;12.10;99.90;;;;;;5104218;28;20047;-73
2023/10/14 08:35:28;;;;;;;14.00;2.08;;;12.00;99.90;;;;;;5102348;28;20392;-70
2023/10/14 08:37:55;;;;;;;19.98;2.45;;;12.00;99.90;;;;;;5103448;28;20419;-72
2023/10/14 08:40:25;;;;;;;23.42;2.38;;;12.10;99.90;;;;;;5103852;28;20016;-71
2023/10/14 08:42:51;;;;;;;16.77;2.30;;;12.10;99.90;;;;;;5104920;28;20030;-70
2023/10/14 08:45:22;;;;;;;14.40;2.42;;;12.10;99.90;;;;;;5104804;28;20105;-69
2023/10/14 08:47:52;;;;;;;17.77;2.28;;;12.10;99.90;;;;;;5104381;28;20031;-73
2023/10/14 08:50:29;;;;;;;24.42;3.47;;;12.20;99.90;;;;;;5104325;28;20087;-69
2023/10/14 08:52:56;;;;;;;18.83;2.22;;;12.30;99.90;;;;;;5103233;28;20050;-70
2023/10/14 08:55:22;;;;;;;17.60;2.58;;;12.40;99.90;;;;;;5103390;28;20131;-69
2023/10/14 08:57:50;;;;;;;16.65;2.63;;;12.50;99.90;;;;;;5104801;28;20040;-67
2023/10/14 09:00:23;;;;;;;19.33;2.72;;;12.60;99.90;;;;;;5104059;28;20036;-70
2023/10/14 09:02:51;;;;;;;19.85;2.22;;;12.50;99.90;;;;;;5104472;28;20034;-73
2023/10/14 09:05:17;;;;;;;19.88;3.08;;;12.50;99.90;;;;;;5104021;28;20096;-69
2023/10/14 09:07:45;;;;;;;17.58;2.38;;;12.60;99.90;;;;;;5104690;28;20062;-68
2023/10/14 09:10:12;;;;;;;13.07;1.80;;;12.60;99.90;;;;;;5100265;28;20089;-66
2023/10/14 09:12:39;;;;;;;11.80;2.17;;;12.60;99.90;;;;;;5103872;28;20040;-68
2023/10/14 09:15:05;;;;;;;14.93;2.20;;;12.70;99.90;;;;;;5104402;28;20016;-73
2023/10/14 09:17:31;;;;;;;22.42;2.08;;;12.70;99.90;;;;;;5102831;28;20043;-70
2023/10/14 09:19:57;;;;;;;10.57;2.03;;;12.70;99.90;;;;;;5102608;28;20507;-69
2023/10/14 09:22:33;;;;;;;16.30;2.13;;;12.70;99.90;;;;;;5104347;28;20024;-70
2023/10/14 09:25:00;;;;;;;15.10;2.17;;;12.80;99.90;;;;;;5102744;28;20024;-71
2023/10/14 09:27:32;;;;;;;13.20;1.92;;;12.80;99.90;;;;;;5103429;28;20023;-72
2023/10/14 09:29:58;;;;;;;14.00;2.13;;;13.00;99.90;;;;;;5103654;28;20075;-70
2023/10/14 09:32:24;;;;;;;17.48;1.95;;;13.20;99.90;;;;;;5102654;28;20020;-74
2023/10/14 09:34:51;;;;;;;10.77;1.75;;;13.10;99.90;;;;;;5101924;28;20028;-70
2023/10/14 09:37:17;;;;;;;13.60;1.70;;;13.00;99.90;;;;;;5101412;28;20115;-72
2023/10/14 09:39:48;;;;;;;5.93;1.30;;;12.90;99.90;;;;;;5102722;28;20027;-69
2023/10/14 09:42:18;;;;;;;10.93;1.38;;;12.80;99.90;;;;;;5102211;28;20039;-76
2023/10/14 09:44:45;;;;;;;8.07;1.40;;;12.60;99.90;;;;;;5102457;28;20024;-72
2023/10/14 09:47:19;;;;;;;5.78;1.98;;;12.70;99.90;;;;;;5102358;28;20066;-74
2023/10/14 09:49:47;;;;;;;11.20;1.65;;;12.80;99.90;;;;;;5102470;28;20032;-75
2023/10/14 09:52:16;;;;;;;10.45;1.50;;;12.80;99.90;;;;;;5102072;28;20028;-71
2023/10/14 09:54:42;;;;;;;7.60;1.10;;;12.80;99.90;;;;;;5101165;28;20052;-70
2023/10/14 09:57:10;;;;;;;11.50;1.42;;;12.70;99.90;;;;;;5102626;28;20054;-71
2023/10/14 09:59:40;;;;;;;7.00;1.88;;;12.90;99.90;;;;;;5101957;28;20020;-72
2023/10/14 10:02:09;;;;;;;10.43;1.30;;;13.00;99.90;;;;;;5100940;28;20361;-71
2023/10/14 10:04:40;;;;;;;10.50;1.67;;;13.10;99.90;;;;;;5099853;28;20102;-72
2023/10/14 10:07:19;;;;;;;12.07;1.60;;;13.20;99.90;;;;;;5101910;28;20039;-73
2023/10/14 10:10:13;;;;;;;11.40;1.80;;;13.10;99.90;;;;;;5100962;28;20021;-72
2023/10/14 10:12:43;;;;;;;13.10;1.63;;;13.20;99.90;;;;;;5101361;28;20400;-73
2023/10/14 10:15:09;;;;;;;11.60;1.92;;;13.10;99.90;;;;;;5099465;28;20056;-71
2023/10/14 10:17:39;;;;;;;10.63;1.60;;;13.20;99.90;;;;;;5101717;28;20028;-73
2023/10/14 10:20:09;;;;;;;14.65;2.17;;;13.10;99.90;;;;;;5101791;28;20023;-74
2023/10/14 10:22:51;;;;;;;13.70;2.90;;;13.10;99.90;;;;;;5101223;28;20023;-69
2023/10/14 10:25:37;;;;;;;11.43;2.10;;;13.20;99.90;;;;;;5100777;28;20039;-74
2023/10/14 10:28:28;;;;;;;13.48;1.95;;;13.20;99.90;;;;;;5100424;28;20126;-70
2023/10/14 10:31:15;;;;;;;11.70;1.48;;;13.40;99.90;;;;;;5100557;28;20076;-77
2023/10/14 10:34:01;;;;;;;8.82;1.63;;;13.30;99.90;;;;;;5100341;28;20024;-69
2023/10/14 10:36:28;;;;;;;12.88;2.00;;;13.40;99.90;;;;;;5100719;28;20016;-71
2023/10/14 10:38:57;;;;;;;13.10;1.63;;;13.40;99.90;;;;;;5102211;28;20111;-74
2023/10/14 10:41:25;;;;;;;13.52;2.17;;;13.40;99.90;;;;;;5102205;28;20028;-79
2023/10/14 10:43:57;;;;;;;14.32;2.00;;;13.50;99.90;;;;;;5101328;28;20027;-75
2023/10/14 10:46:46;;;;;;;15.35;2.40;;;13.80;99.90;;;;;;5100517;28;20487;-74
2023/10/14 10:49:14;;;;;;;15.98;2.55;;;13.90;99.90;;;;;;5101700;28;20512;-71
2023/10/14 10:51:52;;;;;;;18.95;2.63;;;14.10;99.90;;;;;;5101629;28;20020;-74
2023/10/14 10:54:22;;;;;;;21.67;2.13;;;13.70;99.90;;;;;;5102195;28;20048;-77
2023/10/14 10:56:48;;;;;;;18.30;1.98;;;13.30;99.90;;;;;;5101853;28;20028;-76
2023/10/14 10:59:14;;;;;;;11.85;1.88;;;12.90;99.90;;;;;;5100927;28;20031;-73
2023/10/14 11:01:41;;;;;;;11.85;1.60;;;12.70;99.90;;;;;;5102021;28;20051;-72
2023/10/14 11:04:12;;;;;;;11.52;1.40;;;12.40;99.90;;;;;;5100518;28;20038;-71
2023/10/14 11:06:38;;;;;;;14.57;1.23;;;12.40;99.90;;;;;;5102309;28;20020;-73
2023/10/14 11:09:04;;;;;;;12.80;1.60;;;12.20;99.90;;;;;;5100664;28;20073;-73
2023/10/14 11:11:34;;;;;;;6.57;0.80;;;11.90;99.90;;;;;;5100236;28;20046;-73
2023/10/14 11:14:00;;;;;;;9.10;1.40;;;11.60;99.90;;;;;;5100549;28;20084;-76
2023/10/14 11:16:29;;;;;;;8.23;1.00;;;11.50;99.90;;;;;;5102039;28;20023;-73
2023/10/14 11:18:56;;;;;;;7.32;1.20;;;11.40;99.90;;;;;;5099102;28;20412;-75
2023/10/14 11:21:27;;;;;;;3.78;0.80;;;11.30;99.90;;;;;;5101101;28;20095;-78
2023/10/14 11:23:54;;;;;;;9.00;0.90;;;11.20;99.90;;;;;;5100576;28;20707;-77
2023/10/14 11:26:20;;;;;;;10.30;1.13;;;11.00;99.90;;;;;;5100312;28;20040;-76
2023/10/14 11:28:48;;;;;;;14.35;1.10;;;10.90;99.90;;;;;;5099149;28;20031;-75
2023/10/14 11:31:14;;;;;;;5.85;1.00;;;10.90;99.90;;;;;;5100031;28;20032;-75
2023/10/14 11:33:45;;;;;;;2.53;1.00;;;10.80;99.90;;;;;;5099437;28;20550;-75
2023/10/14 11:36:18;;;;;;;4.88;0.80;;;10.70;99.90;;;;;;5100238;28;20022;-72
2023/10/14 11:38:46;;;;;;;7.95;1.10;;;10.60;99.90;;;;;;5100645;28;20043;-73
2023/10/14 11:41:13;;;;;;;2.92;0.70;;;10.70;99.90;;;;;;5096685;28;20027;-73
2023/10/14 11:43:44;;;;;;;7.00;0.77;;;10.60;99.90;;;;;;5099159;28;20032;-73
2023/10/14 11:46:10;;;;;;;4.50;0.70;;;10.60;99.90;;;;;;5101238;28;20024;-73
2023/10/14 11:48:38;;;;;;;2.97;0.50;;;10.70;99.90;;;;;;5101356;28;20016;-74
2023/10/14 11:51:11;;;;;;;6.57;0.88;;;10.80;99.90;;;;;;5100132;28;20024;-75
2023/10/14 11:53:43;;;;;;;5.28;1.00;;;10.70;99.90;;;;;;5099748;28;20035;-74
2023/10/14 11:56:13;;;;;;;8.07;0.93;;;10.90;99.90;;;;;;5100275;28;20487;-76
2023/10/14 11:58:42;;;;;;;6.07;0.75;;;10.90;99.90;;;;;;5101041;28;20024;-74
2023/10/14 12:01:09;;;;;;;7.90;1.20;;;11.20;99.90;;;;;;5101478;28;20020;-73
2023/10/14 12:03:36;;;;;;;8.75;0.95;;;11.40;99.90;;;;;;5098494;28;20020;-76
2023/10/14 12:06:03;;;;;;;4.80;1.08;;;11.50;99.90;;;;;;5101308;28;20083;-76
2023/10/14 12:08:32;;;;;;;8.68;0.93;;;11.80;99.90;;;;;;5098611;28;20024;-75
2023/10/14 12:10:58;;;;;;;8.60;1.02;;;12.10;99.90;;;;;;5101347;28;20054;-75
2023/10/14 12:13:25;;;;;;;3.92;0.95;;;12.40;99.90;;;;;;5100195;28;20046;-76
2023/10/14 12:15:51;;;;;;;7.80;1.52;;;12.60;99.90;;;;;;5101491;28;20028;-75
2023/10/14 12:18:17;;;;;;;6.40;0.80;;;12.90;99.90;;;;;;5100013;28;20506;-72
2023/10/14 12:20:46;;;;;;;7.60;0.88;;;13.00;99.90;;;;;;5101187;28;21348;-75
2023/10/14 12:23:19;;;;;;;5.60;1.00;;;13.10;99.90;;;;;;5100136;28;20063;-75
2023/10/14 12:25:49;;;;;;;6.78;1.10;;;13.10;99.90;;;;;;5100049;28;20073;-78
2023/10/14 12:28:17;;;;;;;7.68;0.93;;;13.30;99.90;;;;;;5098632;28;20044;-72
2023/10/14 12:30:46;;;;;;;8.93;1.30;;;13.50;99.90;;;;;;5101470;28;20106;-78
2023/10/14 12:33:19;;;;;;;6.75;1.20;;;13.60;99.90;;;;;;5098343;28;20028;-77
2023/10/14 12:35:45;;;;;;;9.77;1.42;;;13.40;99.90;;;;;;5097570;28;20036;-71
2023/10/14 12:38:13;;;;;;;9.10;1.35;;;12.60;99.90;;;;;;5100987;28;20035;-72
2023/10/14 12:40:39;;;;;;;5.80;1.02;;;11.80;99.90;;;;;;5100870;28;20048;-70
2023/10/14 12:43:05;;;;;;;6.57;0.90;;;11.40;99.90;;;;;;5101358;28;20028;-70
2023/10/14 12:45:33;;;;;;;5.55;0.82;;;11.10;99.90;;;;;;5104646;28;20023;-70
2023/10/14 12:48:11;;;;;;;6.03;1.00;;;10.90;99.90;;;;;;5087334;28;20035;-73
2023/10/14 12:50:40;;;;;;;4.25;0.98;;;11.10;99.90;;;;;;5094308;28;20122;-73
2023/10/14 12:53:08;;;;;;;4.63;0.88;;;11.30;99.90;;;;;;5100049;28;20051;-75
2023/10/14 12:55:36;;;;;;;10.05;1.02;;;11.30;99.90;;;;;;5100441;28;20097;-73
2023/10/14 12:58:02;;;;;;;10.25;1.25;;;11.50;99.90;;;;;;5104720;28;20028;-76
2023/10/14 13:00:29;;;;;;;10.23;1.88;;;11.90;99.90;;;;;;5101058;28;20127;-75
2023/10/14 13:02:59;;;;;;;7.05;1.02;;;12.10;99.90;;;;;;5103954;28;20035;-78
2023/10/14 13:05:26;;;;;;;9.02;1.48;;;12.30;99.90;;;;;;5104463;28;20024;-77
2023/10/14 13:07:53;;;;;;;7.03;1.02;;;12.60;99.90;;;;;;5104133;28;20039;-78
2023/10/14 13:10:19;;;;;;;10.43;1.23;;;12.80;99.90;;;;;;5102816;28;20389;-77
2023/10/14 13:12:49;;;;;;;9.73;1.48;;;12.70;99.90;;;;;;5104816;28;20574;-77
2023/10/14 13:15:35;;;;;;;9.43;1.90;;;12.60;99.90;;;;;;5103559;28;20094;-77
2023/10/14 13:18:05;;;;;;;12.18;1.75;;;12.30;99.90;;;;;;5104134;28;20036;-77
2023/10/14 13:20:32;;;;;;;12.15;1.55;;;12.20;99.90;;;;;;5104193;28;20020;-77
2023/10/14 13:23:03;;;;;;;10.27;1.65;;;12.00;99.90;;;;;;5102706;28;20034;-79
2023/10/14 13:25:36;;;;;;;16.10;2.28;;;12.00;99.90;;;;;;5104056;28;20027;-79
2023/10/14 13:28:08;;;;;;;14.48;2.10;;;11.90;99.90;;;;;;5103259;28;20016;-77
2023/10/14 13:30:37;;;;;;;12.23;1.80;;;12.10;99.90;;;;;;5103669;28;20039;-75
2023/10/14 13:33:05;;;;;;;18.77;2.20;;;12.30;99.90;;;;;;5103540;28;20028;-74
2023/10/14 13:35:33;;;;;;;10.07;2.03;;;12.50;99.90;;;;;;5103534;28;20012;-74
2023/10/14 13:38:03;;;;;;;11.10;2.10;;;12.70;99.90;;;;;;5102908;28;20126;-77